createdAt,value
2019-05-11T00:01:07.447Z,10.77
2019-05-11T00:03:35.582Z,11.70
2019-05-11T00:06:03.883Z,12.00
2019-05-11T00:08:31.742Z,11.43
2019-05-11T00:10:59.552Z,11.57
2019-05-11T00:13:27.388Z,12.43
2019-05-11T00:15:55.271Z,13.40
2019-05-11T00:18:23.044Z,11.87
2019-05-11T00:20:50.829Z,13.87
2019-05-11T00:23:18.669Z,10.90
2019-05-11T00:25:46.442Z,12.73
2019-05-11T00:28:14.322Z,15.63
2019-05-11T00:30:42.636Z,12.07
2019-05-11T00:33:10.460Z,15.00
2019-05-11T00:35:38.275Z,14.40
2019-05-11T00:38:06.659Z,15.53
2019-05-11T00:40:34.449Z,13.80
2019-05-11T00:43:02.271Z,15.60
2019-05-11T00:45:30.131Z,17.57
2019-05-11T00:47:57.955Z,13.57
2019-05-11T00:50:38.700Z,15.10
2019-05-11T00:52:55.370Z,14.30
2019-05-11T00:55:23.168Z,16.33
2019-05-11T00:57:51.148Z,14.80
2019-05-11T01:00:19.032Z,18.13
2019-05-11T01:02:46.811Z,17.23
2019-05-11T01:05:14.791Z,19.83
2019-05-11T01:07:42.585Z,15.43
2019-05-11T01:10:23.078Z,18.97
2019-05-11T01:12:40.945Z,16.67
2019-05-11T01:15:09.288Z,15.40
2019-05-11T01:17:37.100Z,17.97
2019-05-11T01:20:05.245Z,14.60
2019-05-11T01:22:33.041Z,17.83
2019-05-11T01:25:00.839Z,16.00
2019-05-11T01:27:28.634Z,15.97
2019-05-11T01:29:56.429Z,13.47
2019-05-11T01:32:24.240Z,14.47
2019-05-11T01:34:52.492Z,14.27
2019-05-11T01:37:20.575Z,14.70
2019-05-11T01:39:48.877Z,16.20
2019-05-11T01:42:16.997Z,16.27
2019-05-11T01:44:45.237Z,15.10
2019-05-11T01:47:13.676Z,15.87
2019-05-11T01:49:41.493Z,14.10
2019-05-11T01:52:09.498Z,15.27
2019-05-11T01:54:37.397Z,13.57
2019-05-11T01:57:05.627Z,13.83
2019-05-11T01:59:33.439Z,15.40
2019-05-11T02:02:01.826Z,18.53
2019-05-11T02:04:29.946Z,14.57
2019-05-11T02:06:57.769Z,16.87
2019-05-11T02:09:25.566Z,15.60
2019-05-11T02:11:53.693Z,16.37
2019-05-11T02:14:21.517Z,14.70
2019-05-11T02:16:49.331Z,16.57
2019-05-11T02:19:17.054Z,16.53
2019-05-11T02:21:45.194Z,15.93
2019-05-11T02:24:13.043Z,14.80
2019-05-11T02:26:40.843Z,15.47
2019-05-11T02:29:08.659Z,18.03
2019-05-11T02:31:36.499Z,15.63
2019-05-11T02:34:04.559Z,15.50
2019-05-11T02:36:32.447Z,14.57
2019-05-11T02:39:00.553Z,13.63
2019-05-11T02:41:36.538Z,15.77
2019-05-11T02:43:58.341Z,14.50
2019-05-11T02:46:26.142Z,14.10
2019-05-11T02:48:54.475Z,14.77
2019-05-11T02:51:22.555Z,14.60
2019-05-11T02:53:51.670Z,17.50
2019-05-11T02:56:19.489Z,15.00
2019-05-11T02:58:47.282Z,14.73
2019-05-11T03:01:15.293Z,15.50
2019-05-11T03:03:43.626Z,14.47
2019-05-11T03:06:11.409Z,17.57
2019-05-11T03:08:39.225Z,15.30
2019-05-11T03:11:07.017Z,16.87
2019-05-11T03:13:34.900Z,16.60
2019-05-11T03:16:03.045Z,15.23
2019-05-11T03:18:30.823Z,15.07
2019-05-11T03:20:59.028Z,16.77
2019-05-11T03:23:27.304Z,15.17
2019-05-11T03:25:55.104Z,14.87
2019-05-11T03:28:22.921Z,15.50
2019-05-11T03:30:51.160Z,15.17
2019-05-11T03:33:18.997Z,17.27
2019-05-11T03:35:47.314Z,13.67
2019-05-11T03:38:15.185Z,13.97
2019-05-11T03:40:43.107Z,13.93
2019-05-11T03:43:11.081Z,14.37
2019-05-11T03:45:39.464Z,13.67
2019-05-11T03:48:07.562Z,14.03
2019-05-11T03:50:35.443Z,13.17
2019-05-11T03:53:03.206Z,16.57
2019-05-11T03:55:31.534Z,14.03
2019-05-11T03:57:59.361Z,13.83
2019-05-11T04:00:27.179Z,14.63
2019-05-11T04:02:54.970Z,13.33
2019-05-11T04:05:22.859Z,13.03
2019-05-11T04:07:51.244Z,13.10
2019-05-11T04:10:19.215Z,12.60
2019-05-11T04:12:47.341Z,12.67
2019-05-11T04:15:15.584Z,12.77
2019-05-11T04:17:43.776Z,12.70
2019-05-11T04:20:11.698Z,13.17
2019-05-11T04:22:39.550Z,12.70
2019-05-11T04:25:07.326Z,12.30
2019-05-11T04:27:35.191Z,12.23
2019-05-11T04:30:03.501Z,10.33
2019-05-11T04:32:31.356Z,10.13
2019-05-11T04:34:59.124Z,10.47
2019-05-11T04:37:26.945Z,11.03
2019-05-11T04:39:55.054Z,9.67
2019-05-11T04:42:22.850Z,9.37
2019-05-11T04:44:52.498Z,8.97
2019-05-11T04:47:20.293Z,9.27
2019-05-11T04:49:48.085Z,8.27
2019-05-11T04:52:15.900Z,8.03
2019-05-11T04:54:43.799Z,7.93
2019-05-11T04:57:11.598Z,6.93
2019-05-11T04:59:39.361Z,6.40
2019-05-11T05:02:07.738Z,6.00
2019-05-11T05:04:35.605Z,5.47
2019-05-11T05:07:05.366Z,4.90
2019-05-11T05:09:36.022Z,5.50
2019-05-11T05:12:03.026Z,4.93
2019-05-11T05:14:31.410Z,4.70
2019-05-11T05:16:59.716Z,7.77
2019-05-11T05:19:27.578Z,5.40
2019-05-11T05:21:55.443Z,6.43
2019-05-11T05:24:23.718Z,6.50
2019-05-11T05:26:51.953Z,6.43
2019-05-11T05:29:19.792Z,7.37
2019-05-11T05:31:47.602Z,4.97
2019-05-11T05:34:15.916Z,5.93
2019-05-11T05:36:43.782Z,4.70
2019-05-11T05:39:11.852Z,5.23
2019-05-11T05:41:39.790Z,5.63
2019-05-11T05:44:07.594Z,5.17
2019-05-11T05:46:35.732Z,5.47
2019-05-11T05:49:03.570Z,4.83
2019-05-11T05:51:31.339Z,4.67
2019-05-11T05:53:59.208Z,4.70
2019-05-11T05:56:26.967Z,3.17
2019-05-11T05:58:54.770Z,4.93
2019-05-11T06:01:22.624Z,4.70
2019-05-11T06:03:50.415Z,6.27
2019-05-11T06:06:18.226Z,4.17
2019-05-11T06:08:46.058Z,3.57
2019-05-11T06:11:13.871Z,5.67
2019-05-11T06:13:45.894Z,4.50
2019-05-11T06:16:11.313Z,3.33
2019-05-11T06:18:39.107Z,4.67
2019-05-11T06:21:07.235Z,4.10
2019-05-11T06:23:35.003Z,3.70
2019-05-11T06:26:02.857Z,3.13
2019-05-11T06:28:30.939Z,3.20
2019-05-11T06:30:58.786Z,4.40
2019-05-11T06:33:26.600Z,4.17
2019-05-11T06:35:54.694Z,4.13
2019-05-11T06:38:22.546Z,7.13
2019-05-11T06:40:50.330Z,2.30
2019-05-11T06:43:18.188Z,4.17
2019-05-11T06:45:45.983Z,3.60
2019-05-11T06:48:13.785Z,4.83
2019-05-11T06:50:41.936Z,3.73
2019-05-11T06:53:10.051Z,4.00
2019-05-11T06:55:37.778Z,3.77
2019-05-11T06:58:06.230Z,3.53
2019-05-11T07:00:34.186Z,2.90
2019-05-11T07:03:02.088Z,4.53
2019-05-11T07:05:29.912Z,3.57
2019-05-11T07:07:57.688Z,4.00
2019-05-11T07:10:25.684Z,2.67
2019-05-11T07:12:53.686Z,3.40
2019-05-11T07:15:21.516Z,3.27
2019-05-11T07:17:49.296Z,3.77
2019-05-11T07:20:17.230Z,3.33
2019-05-11T07:22:45.110Z,2.53
2019-05-11T07:25:12.989Z,3.57
2019-05-11T07:27:40.737Z,3.83
2019-05-11T07:30:09.212Z,2.10
2019-05-11T07:32:38.098Z,3.10
2019-05-11T07:35:08.463Z,3.27
2019-05-11T07:37:38.550Z,5.10
2019-05-11T07:40:08.244Z,2.13
2019-05-11T07:42:38.021Z,3.83
2019-05-11T07:45:08.694Z,3.13
2019-05-11T07:47:37.950Z,4.53
2019-05-11T07:50:08.071Z,3.83
2019-05-11T07:52:37.681Z,3.60
2019-05-11T07:55:08.294Z,3.83
2019-05-11T07:57:35.593Z,3.43
2019-05-11T08:00:03.819Z,3.97
2019-05-11T08:02:32.444Z,2.87
2019-05-11T08:05:00.312Z,2.97
2019-05-11T08:07:28.613Z,2.27
2019-05-11T08:09:58.543Z,3.23
2019-05-11T08:12:28.287Z,3.40
2019-05-11T08:15:04.934Z,5.57
2019-05-11T08:17:25.822Z,2.97
2019-05-11T08:19:53.654Z,2.90
2019-05-11T08:22:23.005Z,3.20
2019-05-11T08:24:50.979Z,2.10
2019-05-11T08:27:18.842Z,2.53
2019-05-11T08:29:48.745Z,2.30
2019-05-11T08:32:18.325Z,2.10
2019-05-11T08:34:46.204Z,2.40
2019-05-11T08:37:14.180Z,2.20
2019-05-11T08:39:42.060Z,2.10
2019-05-11T08:42:09.894Z,2.27
2019-05-11T08:44:38.255Z,1.70
2019-05-11T08:47:08.348Z,2.77
2019-05-11T08:49:37.965Z,2.90
2019-05-11T08:52:08.006Z,3.77
2019-05-11T08:54:38.022Z,3.30
2019-05-11T08:57:05.175Z,2.13
2019-05-11T08:59:33.065Z,4.43
2019-05-11T09:02:00.977Z,2.27
2019-05-11T09:04:29.005Z,3.17
2019-05-11T09:06:58.738Z,2.50
2019-05-11T09:09:28.626Z,2.67
2019-05-11T09:11:58.864Z,3.03
2019-05-11T09:14:28.357Z,4.07
2019-05-11T09:16:57.768Z,3.03
2019-05-11T09:19:28.225Z,1.87
2019-05-11T09:21:55.528Z,3.00
2019-05-11T09:24:23.368Z,2.57
2019-05-11T09:26:51.278Z,2.77
2019-05-11T09:29:19.104Z,3.03
2019-05-11T09:31:48.687Z,3.90
2019-05-11T09:34:18.097Z,2.47
2019-05-11T09:36:47.996Z,2.90
2019-05-11T09:39:17.668Z,3.77
2019-05-11T09:41:45.484Z,2.60
2019-05-11T09:44:13.578Z,6.10
2019-05-11T09:46:41.779Z,2.70
2019-05-11T09:49:09.615Z,1.93
2019-05-11T09:51:38.056Z,3.40
2019-05-11T09:54:07.917Z,2.23
2019-05-11T09:56:37.971Z,2.80
2019-05-11T09:59:05.722Z,2.10
2019-05-11T10:01:33.567Z,2.43
2019-05-11T10:04:01.342Z,2.80
2019-05-11T10:06:29.209Z,1.63
2019-05-11T10:08:57.969Z,3.07
2019-05-11T10:11:28.096Z,3.90
2019-05-11T10:13:57.629Z,3.13
2019-05-11T10:16:25.102Z,3.43
2019-05-11T10:18:53.241Z,2.67
2019-05-11T10:21:21.049Z,2.00
2019-05-11T10:23:49.321Z,2.33
2019-05-11T10:26:18.641Z,3.07
2019-05-11T10:28:48.140Z,2.83
2019-05-11T10:31:17.988Z,1.93
2019-05-11T10:33:45.962Z,1.80
2019-05-11T10:36:13.791Z,2.87
2019-05-11T10:38:42.041Z,2.87
2019-05-11T10:41:10.729Z,1.80
2019-05-11T10:43:38.536Z,1.60
2019-05-11T10:46:17.051Z,1.70
2019-05-11T10:48:36.058Z,2.60
2019-05-11T10:51:03.868Z,1.53
2019-05-11T10:53:31.702Z,1.80
2019-05-11T10:55:59.504Z,2.67
2019-05-11T10:58:28.505Z,2.83
2019-05-11T11:00:58.220Z,4.07
2019-05-11T11:03:28.248Z,2.30
2019-05-11T11:05:57.911Z,1.37
2019-05-11T11:08:27.645Z,2.20
2019-05-11T11:10:54.857Z,2.70
2019-05-11T11:13:22.641Z,3.23
2019-05-11T11:15:50.541Z,3.67
2019-05-11T11:18:18.999Z,2.53
2019-05-11T11:20:48.827Z,4.23
2019-05-11T11:23:17.768Z,3.40
2019-05-11T11:25:47.985Z,2.97
2019-05-11T11:28:17.537Z,2.07
2019-05-11T11:30:45.432Z,1.83
2019-05-11T11:33:13.244Z,2.40
2019-05-11T11:35:41.046Z,2.27
2019-05-11T11:38:08.869Z,3.33
2019-05-11T11:40:38.531Z,2.07
2019-05-11T11:43:08.487Z,3.40
2019-05-11T11:45:38.105Z,2.53
2019-05-11T11:48:05.782Z,1.93
2019-05-11T11:50:34.086Z,2.83
2019-05-11T11:53:02.308Z,3.20
2019-05-11T11:55:30.139Z,2.73
2019-05-11T11:57:58.986Z,2.70
2019-05-11T12:00:28.845Z,2.77
2019-05-11T12:02:58.030Z,1.53
2019-05-11T12:05:28.098Z,2.77
2019-05-11T12:07:57.831Z,2.63
2019-05-11T12:10:25.232Z,3.70
2019-05-11T12:12:53.077Z,2.07
2019-05-11T12:15:21.388Z,2.13
2019-05-11T12:17:49.183Z,4.03
2019-05-11T12:20:18.032Z,2.73
2019-05-11T12:22:47.675Z,2.27
2019-05-11T12:25:15.666Z,2.53
2019-05-11T12:27:43.620Z,2.50
2019-05-11T12:30:12.603Z,3.17
2019-05-11T12:32:44.656Z,3.97
2019-05-11T12:35:12.881Z,2.83
2019-05-11T12:37:40.690Z,2.97
2019-05-11T12:40:10.435Z,3.20
2019-05-11T12:42:38.714Z,4.60
2019-05-11T12:45:07.613Z,2.17
2019-05-11T12:47:35.675Z,2.07
2019-05-11T12:50:03.683Z,2.53
2019-05-11T12:52:31.511Z,3.67
2019-05-11T12:54:59.323Z,2.50
2019-05-11T12:57:28.133Z,2.77
2019-05-11T12:59:58.105Z,3.47
2019-05-11T13:02:45.146Z,2.23
2019-05-11T13:05:13.491Z,2.50
2019-05-11T13:07:41.288Z,4.57
2019-05-11T13:10:09.363Z,5.03
2019-05-11T13:12:38.569Z,3.50
2019-05-11T13:15:08.310Z,3.97
2019-05-11T13:17:38.383Z,2.77
2019-05-11T13:20:12.669Z,4.77
2019-05-11T13:22:39.450Z,2.97
2019-05-11T13:25:08.551Z,2.80
2019-05-11T13:27:38.740Z,4.47
2019-05-11T13:30:08.015Z,3.67
2019-05-11T13:32:38.240Z,2.10
2019-05-11T13:35:06.162Z,2.67
2019-05-11T13:37:33.976Z,3.40
2019-05-11T13:40:01.817Z,2.93
2019-05-11T13:42:29.586Z,2.70
2019-05-11T13:44:58.445Z,3.90
2019-05-11T13:47:28.274Z,2.53
2019-05-11T13:49:58.275Z,3.10
2019-05-11T13:52:25.639Z,3.17
2019-05-11T13:54:53.483Z,2.70
2019-05-11T13:57:21.551Z,3.33
2019-05-11T13:59:49.370Z,2.23
2019-05-11T14:02:18.165Z,2.30
2019-05-11T14:04:48.095Z,1.87
2019-05-11T14:07:15.765Z,3.27
2019-05-11T14:09:43.636Z,3.53
2019-05-11T14:12:11.430Z,3.40
2019-05-11T14:14:39.230Z,3.33
2019-05-11T14:17:08.292Z,2.40
2019-05-11T14:19:38.489Z,2.40
2019-05-11T14:22:05.887Z,4.53
2019-05-11T14:24:34.378Z,3.10
2019-05-11T14:27:02.787Z,4.83
2019-05-11T14:29:30.636Z,2.17
2019-05-11T14:31:58.514Z,2.87
2019-05-11T14:34:28.343Z,3.53
2019-05-11T14:36:58.253Z,2.60
2019-05-11T14:39:27.975Z,7.13
2019-05-11T14:41:55.828Z,3.37
2019-05-11T14:44:23.596Z,2.13
2019-05-11T14:46:51.414Z,3.23
2019-05-11T14:49:19.560Z,3.40
2019-05-11T14:51:48.557Z,2.57
2019-05-11T14:54:18.855Z,2.17
2019-05-11T14:56:48.165Z,1.90
2019-05-11T14:59:18.175Z,5.53
2019-05-11T15:01:45.418Z,3.70
2019-05-11T15:04:13.466Z,2.30
2019-05-11T15:06:41.326Z,2.40
2019-05-11T15:09:09.132Z,1.87
2019-05-11T15:11:38.826Z,4.83
2019-05-11T15:14:08.083Z,2.27
2019-05-11T15:16:38.356Z,2.03
2019-05-11T15:19:08.059Z,2.20
2019-05-11T15:21:35.987Z,3.50
2019-05-11T15:24:04.110Z,1.60
2019-05-11T15:26:31.969Z,3.30
2019-05-11T15:28:59.750Z,3.27
2019-05-11T15:31:27.953Z,3.90
2019-05-11T15:33:57.761Z,3.17
2019-05-11T15:36:25.401Z,3.13
2019-05-11T15:38:53.253Z,3.63
2019-05-11T15:41:21.036Z,2.33
2019-05-11T15:43:48.821Z,2.63
2019-05-11T15:46:19.545Z,2.00
2019-05-11T15:48:58.519Z,2.53
2019-05-11T15:51:18.544Z,2.43
2019-05-11T15:53:47.575Z,2.43
2019-05-11T15:56:15.700Z,2.27
2019-05-11T15:58:43.551Z,2.47
2019-05-11T16:01:11.701Z,3.57
2019-05-11T16:03:39.505Z,3.57
2019-05-11T16:06:07.838Z,3.87
2019-05-11T16:08:37.597Z,2.60
2019-05-11T16:11:08.151Z,3.63
2019-05-11T16:13:37.614Z,2.90
2019-05-11T16:16:05.113Z,2.57
2019-05-11T16:18:32.931Z,3.77
2019-05-11T16:21:00.697Z,3.83
2019-05-11T16:23:28.592Z,3.20
2019-05-11T16:25:58.083Z,3.73
2019-05-11T16:28:30.192Z,2.73
2019-05-11T16:30:55.586Z,3.63
2019-05-11T16:33:23.452Z,5.87
2019-05-11T16:35:51.236Z,2.60
2019-05-11T16:38:19.138Z,2.57
2019-05-11T16:40:48.046Z,2.70
2019-05-11T16:43:15.906Z,2.17
2019-05-11T16:45:43.696Z,3.93
2019-05-11T16:48:11.491Z,2.00
2019-05-11T16:50:39.302Z,4.33
2019-05-11T16:53:07.169Z,2.97
2019-05-11T16:55:37.593Z,3.33
2019-05-11T16:58:04.741Z,2.23
2019-05-11T17:00:32.581Z,2.87
2019-05-11T17:03:00.872Z,3.47
2019-05-11T17:05:33.453Z,5.13
2019-05-11T17:07:58.836Z,5.13
2019-05-11T17:10:28.409Z,6.87
2019-05-11T17:12:58.103Z,2.10
2019-05-11T17:15:25.945Z,2.47
2019-05-11T17:17:53.769Z,5.17
2019-05-11T17:20:21.593Z,3.83
2019-05-11T17:22:53.592Z,2.87
2019-05-11T17:25:19.970Z,5.73
2019-05-11T17:27:48.655Z,4.53
2019-05-11T17:30:19.634Z,2.57
2019-05-11T17:32:49.242Z,4.53
2019-05-11T17:35:17.838Z,2.47
2019-05-11T17:37:48.174Z,2.23
2019-05-11T17:40:18.592Z,3.53
2019-05-11T17:42:47.399Z,2.17
2019-05-11T17:45:14.930Z,2.30
2019-05-11T17:47:42.721Z,3.33
2019-05-11T17:50:11.074Z,2.93
2019-05-11T17:52:39.335Z,2.43
2019-05-11T17:55:07.540Z,3.13
2019-05-11T17:57:35.353Z,2.00
2019-05-11T18:00:03.981Z,3.93
2019-05-11T18:02:31.879Z,3.37
2019-05-11T18:04:59.691Z,1.90
2019-05-11T18:07:30.821Z,2.23
2019-05-11T18:09:58.662Z,4.27
2019-05-11T18:12:28.529Z,3.10
2019-05-11T18:14:58.566Z,2.70
2019-05-11T18:17:26.257Z,3.83
2019-05-11T18:19:54.078Z,2.83
2019-05-11T18:22:21.851Z,1.70
2019-05-11T18:24:49.656Z,2.53
2019-05-11T18:27:18.447Z,2.30
2019-05-11T18:29:48.450Z,2.57
2019-05-11T18:32:15.975Z,2.23
2019-05-11T18:34:43.744Z,4.17
2019-05-11T18:37:11.562Z,2.90
2019-05-11T18:39:39.574Z,3.10
2019-05-11T18:42:08.262Z,3.10
2019-05-11T18:44:37.961Z,5.00
2019-05-11T18:47:08.677Z,5.90
2019-05-11T18:49:38.111Z,4.13
2019-05-11T18:52:08.076Z,4.23
2019-05-11T18:54:38.359Z,3.30
2019-05-11T18:57:08.107Z,4.23
2019-05-11T18:59:37.855Z,2.83
2019-05-11T19:02:05.280Z,2.40
2019-05-11T19:04:33.055Z,4.40
2019-05-11T19:07:13.191Z,3.33
2019-05-11T19:09:30.514Z,2.13
2019-05-11T19:11:58.799Z,2.37
2019-05-11T19:14:28.136Z,2.37
2019-05-11T19:16:56.416Z,2.43
2019-05-11T19:19:24.196Z,2.80
2019-05-11T19:21:52.045Z,2.53
2019-05-11T19:24:20.269Z,1.53
2019-05-11T19:26:51.081Z,1.90
2019-05-11T19:29:17.984Z,3.00
2019-05-11T19:31:47.672Z,3.00
2019-05-11T19:34:17.656Z,3.83
2019-05-11T19:36:45.034Z,2.50
2019-05-11T19:39:13.239Z,2.17
2019-05-11T19:41:41.407Z,4.23
2019-05-11T19:44:09.742Z,2.10
2019-05-11T19:46:38.806Z,2.87
2019-05-11T19:49:08.643Z,2.53
2019-05-11T19:51:42.021Z,2.23
2019-05-11T19:54:08.385Z,3.33
2019-05-11T19:56:38.415Z,2.37
2019-05-11T19:59:08.407Z,3.40
2019-05-11T20:01:35.838Z,3.10
2019-05-11T20:04:03.619Z,2.87
2019-05-11T20:06:31.405Z,3.23
2019-05-11T20:08:59.555Z,3.20
2019-05-11T20:11:27.903Z,2.90
2019-05-11T20:13:55.897Z,5.00
2019-05-11T20:16:23.784Z,4.50
2019-05-11T20:18:51.935Z,2.10
2019-05-11T20:21:23.042Z,4.03
2019-05-11T20:23:50.262Z,2.97
2019-05-11T20:26:18.211Z,3.50
2019-05-11T20:28:48.140Z,5.03
2019-05-11T20:31:18.174Z,2.87
2019-05-11T20:33:47.614Z,3.10
2019-05-11T20:36:17.725Z,3.03
2019-05-11T20:38:47.581Z,3.60
2019-05-11T20:41:15.078Z,4.53
2019-05-11T20:43:43.059Z,3.63
2019-05-11T20:46:10.852Z,2.30
2019-05-11T20:48:38.647Z,2.93
2019-05-11T20:51:08.115Z,3.00
2019-05-11T20:53:36.110Z,3.93
2019-05-11T20:56:03.936Z,2.97
2019-05-11T20:58:51.147Z,3.17
2019-05-11T21:01:21.483Z,5.30
2019-05-11T21:03:48.813Z,4.27
2019-05-11T21:06:18.440Z,3.13
2019-05-11T21:08:48.214Z,3.43
2019-05-11T21:11:17.923Z,2.83
2019-05-11T21:13:47.597Z,3.90
2019-05-11T21:16:15.589Z,4.53
2019-05-11T21:18:43.359Z,2.73
2019-05-11T21:21:11.212Z,3.77
2019-05-11T21:23:40.674Z,3.73
2019-05-11T21:26:09.986Z,2.03
2019-05-11T21:28:38.132Z,2.40
2019-05-11T21:31:08.070Z,3.53
2019-05-11T21:33:37.689Z,2.27
2019-05-11T21:36:05.165Z,3.63
2019-05-11T21:38:32.958Z,3.30
2019-05-11T21:41:00.741Z,4.33
2019-05-11T21:43:28.578Z,2.30
2019-05-11T21:45:58.173Z,3.60
2019-05-11T21:48:27.921Z,2.83
2019-05-11T21:50:55.551Z,2.50
2019-05-11T21:53:25.201Z,2.37
2019-05-11T21:55:53.015Z,3.37
2019-05-11T21:58:20.807Z,4.43
2019-05-11T22:00:50.004Z,3.93
2019-05-11T22:03:18.795Z,3.47
2019-05-11T22:05:48.488Z,3.13
2019-05-11T22:08:17.909Z,3.07
2019-05-11T22:10:45.810Z,3.50
2019-05-11T22:13:13.638Z,2.60
2019-05-11T22:15:41.795Z,2.67
2019-05-11T22:18:10.007Z,4.80
2019-05-11T22:20:40.874Z,3.43
2019-05-11T22:23:08.446Z,3.13
2019-05-11T22:25:38.212Z,3.20
2019-05-11T22:28:08.191Z,3.57
2019-05-11T22:30:35.844Z,2.40
2019-05-11T22:33:04.117Z,2.87
2019-05-11T22:35:31.972Z,3.43
2019-05-11T22:37:59.783Z,2.23
2019-05-11T22:40:28.351Z,3.50
2019-05-11T22:43:00.821Z,2.57
2019-05-11T22:45:27.652Z,4.23
2019-05-11T22:47:55.385Z,4.37
2019-05-11T22:50:23.186Z,2.10
2019-05-11T22:52:51.006Z,4.53
2019-05-11T22:55:19.137Z,4.13
2019-05-11T22:57:48.536Z,4.00
2019-05-11T23:00:20.810Z,2.10
2019-05-11T23:02:49.284Z,2.03
2019-05-11T23:05:17.050Z,2.47
2019-05-11T23:07:44.850Z,2.53
2019-05-11T23:10:12.682Z,3.50
2019-05-11T23:12:40.467Z,1.80
2019-05-11T23:15:11.913Z,2.20
2019-05-11T23:17:40.131Z,2.60
2019-05-11T23:20:08.649Z,4.17
2019-05-11T23:22:56.091Z,2.83
2019-05-11T23:25:18.452Z,2.07
2019-05-11T23:27:48.448Z,2.80
2019-05-11T23:30:19.740Z,3.60
2019-05-11T23:32:48.609Z,2.23
2019-05-11T23:35:18.761Z,4.77
2019-05-11T23:37:48.618Z,2.20
2019-05-11T23:40:18.154Z,2.87
2019-05-11T23:42:45.785Z,2.50
2019-05-11T23:45:14.336Z,2.63
2019-05-11T23:47:42.102Z,3.03
2019-05-11T23:50:10.416Z,2.60
2019-05-11T23:52:38.345Z,2.10
2019-05-11T23:55:08.161Z,2.43
2019-05-11T23:57:37.869Z,3.23
